BFA weather

Boyne Mountain Airport
Boyne Falls, Michigan, United States

Public forecast

Using degrees Fahrenheit for public forecast. Weather courtesy of forecast.io.

Closest aviation weather report (METAR) to Boyne Mountain Airport

Closest report is Gaylord Regional Airport, 13.1 nm (24.2 km) SE. Retrieved 2019/10/16 03:37 UTC (0 seconds ago):

KGLR 160337Z AUTO 12006KT 2 1/2SM -RA BR 07/07 A2963 RMK AO2 RAB16B23 P0000 T00720072

Closest aviation forecast (TAF) to Boyne Mountain Airport

Closest forecast is Pellston Regional Airport of Emmet County Airport, 24.9 nm (46.1 km) NNE. Retrieved 2019-10-16 00:24 UTC (3 hours ago):

TAF KPLN 152322Z 1600/1624 09008KT P6SM -SHRA OVC050 FM160100 09009KT 4SM -SHRA BR OVC030 FM160200 09010KT 5SM -SHRA BR OVC017 FM160400 08009KT 4SM -SHRA BR OVC007 FM161200 34009KT 3SM -SHRA BR OVC007 FM161800 34016G29KT 3SM -SHRA OVC009 FM162200 34017G29KT 6SM -SHRA OVC015